Terminal Aerodrome Forecast
Issued by NWS

Home | Current Version | Previous Version | Text Only | Print | Product List | Glossary On
Versions: 1 2 3 4 5 6 7 8 9 10 11 12 13
000
FTUS43 KJKL 301731
TAFSME
TAF
KSME 301731Z 3018/0118 19017G25KT P6SM FEW045
     FM010000 19012KT P6SM SCT050 WS020/18045KT
     FM010800 20011KT P6SM SHRA VCTS SCT030CB OVC060
     FM011000 21011KT P6SM SHRA VCTS OVC030CB
     FM011300 21009KT P6SM VCSH OVC040
     FM011500 21011G19KT P6SM BKN050=

USA.gov is the U.S. government's official web portal to all federal, state and local government web resources and services.